createdAt,value
2017-10-29T00:00:45.765Z,999
2017-10-29T00:01:54.406Z,998.91
2017-10-29T00:03:03.022Z,998.97
2017-10-29T00:04:11.653Z,998.89
2017-10-29T00:05:20.279Z,998.81
2017-10-29T00:06:28.899Z,998.79
2017-10-29T00:07:37.531Z,998.77
2017-10-29T00:08:46.149Z,998.7
2017-10-29T00:09:54.770Z,998.64
2017-10-29T00:11:03.400Z,998.63
2017-10-29T00:12:12.027Z,998.55
2017-10-29T00:13:20.652Z,998.59
2017-10-29T00:14:29.273Z,998.56
2017-10-29T00:15:38.254Z,998.57
2017-10-29T00:16:46.880Z,998.45
2017-10-29T00:17:55.508Z,998.57
2017-10-29T00:19:04.147Z,998.53
2017-10-29T00:20:12.758Z,998.4
2017-10-29T00:21:21.389Z,998.34
2017-10-29T00:22:30.008Z,998.38
2017-10-29T00:23:38.640Z,998.4
2017-10-29T00:24:47.262Z,998.39
2017-10-29T00:25:55.892Z,998.44
2017-10-29T00:27:04.518Z,998.48
2017-10-29T00:28:13.136Z,998.43
2017-10-29T00:29:21.767Z,998.42
2017-10-29T00:30:30.396Z,998.41
2017-10-29T00:31:39.026Z,998.5
2017-10-29T00:32:47.652Z,998.38
2017-10-29T00:33:56.269Z,998.47
2017-10-29T00:35:04.897Z,998.42
2017-10-29T00:36:13.524Z,998.46
2017-10-29T00:37:22.145Z,998.32
2017-10-29T00:38:30.772Z,998.47
2017-10-29T00:39:39.397Z,998.32
2017-10-29T00:40:48.020Z,998.46
2017-10-29T00:41:56.642Z,998.38
2017-10-29T00:43:05.274Z,998.43
2017-10-29T00:44:13.895Z,998.35
2017-10-29T00:45:22.527Z,998.27
2017-10-29T00:46:31.152Z,998.26
2017-10-29T00:47:39.775Z,998.17
2017-10-29T00:48:48.403Z,998.13
2017-10-29T00:49:57.025Z,998.13
2017-10-29T00:51:05.652Z,998.25
2017-10-29T00:52:14.285Z,998.09
2017-10-29T00:53:22.908Z,998.18
2017-10-29T00:54:31.535Z,998.17
2017-10-29T00:55:40.169Z,998.16
2017-10-29T00:56:48.795Z,998
2017-10-29T00:57:57.421Z,997.97
2017-10-29T00:59:06.046Z,998.03
2017-10-29T01:00:14.666Z,997.95
2017-10-29T01:01:23.300Z,998.1
2017-10-29T01:02:31.921Z,997.9
2017-10-29T01:03:40.544Z,997.94
2017-10-29T01:04:49.176Z,997.93
2017-10-29T01:05:57.799Z,997.9
2017-10-29T01:07:06.423Z,997.96
2017-10-29T01:08:15.055Z,997.88
2017-10-29T01:09:23.685Z,997.85
2017-10-29T01:10:32.304Z,997.83
2017-10-29T01:11:40.929Z,997.74
2017-10-29T01:12:49.558Z,997.71
2017-10-29T01:13:58.179Z,997.73
2017-10-29T01:15:06.809Z,997.6
2017-10-29T01:16:15.430Z,997.59
2017-10-29T01:17:24.059Z,997.64
2017-10-29T01:18:32.686Z,997.44
2017-10-29T01:19:41.307Z,997.63
2017-10-29T01:20:49.937Z,997.57
2017-10-29T01:21:58.558Z,997.46
2017-10-29T01:23:07.190Z,997.57
2017-10-29T01:24:15.818Z,997.46
2017-10-29T01:25:24.442Z,997.42
2017-10-29T01:26:33.076Z,997.38
2017-10-29T01:27:42.033Z,997.42
2017-10-29T01:28:50.652Z,997.36
2017-10-29T01:29:59.284Z,997.33
2017-10-29T01:31:07.910Z,997.44
2017-10-29T01:32:16.545Z,997.26
2017-10-29T01:33:25.169Z,997.27
2017-10-29T01:34:33.791Z,997.39
2017-10-29T01:35:42.423Z,997.07
2017-10-29T01:36:51.049Z,997.26
2017-10-29T01:37:59.668Z,997.28
2017-10-29T01:39:08.299Z,997.25
2017-10-29T01:40:16.926Z,997.25
2017-10-29T01:41:25.543Z,997.31
2017-10-29T01:42:34.173Z,997.34
2017-10-29T01:43:42.801Z,997.28
2017-10-29T01:44:51.431Z,997.09
2017-10-29T01:46:00.057Z,997.28
2017-10-29T01:47:08.682Z,997.16
2017-10-29T01:48:17.301Z,997.19
2017-10-29T01:49:25.932Z,997.01
2017-10-29T01:50:34.555Z,996.99
2017-10-29T01:51:43.181Z,996.98
2017-10-29T01:52:51.807Z,996.93
2017-10-29T01:54:00.431Z,997.07
2017-10-29T01:55:09.056Z,996.87
2017-10-29T01:56:17.692Z,997.11
2017-10-29T01:57:26.653Z,996.94
2017-10-29T01:58:35.281Z,996.77
2017-10-29T01:59:43.897Z,997.03
2017-10-29T02:00:52.524Z,996.99
2017-10-29T02:02:01.154Z,996.84
2017-10-29T02:03:09.778Z,996.98
2017-10-29T02:04:18.403Z,996.91
2017-10-29T02:05:27.035Z,996.88
2017-10-29T02:06:35.659Z,996.79
2017-10-29T02:07:44.289Z,996.64
2017-10-29T02:08:52.923Z,996.82
2017-10-29T02:10:01.546Z,996.67
2017-10-29T02:11:10.167Z,996.67
2017-10-29T02:12:18.793Z,996.63
2017-10-29T02:13:27.412Z,996.67
2017-10-29T02:14:36.045Z,996.69
2017-10-29T02:15:44.673Z,996.49
2017-10-29T02:16:53.616Z,996.53
2017-10-29T02:18:02.248Z,996.68
2017-10-29T02:19:10.870Z,996.57
2017-10-29T02:20:19.822Z,996.73
2017-10-29T02:21:28.447Z,996.55
2017-10-29T02:22:37.071Z,996.32
2017-10-29T02:23:45.701Z,996.71
2017-10-29T02:24:54.325Z,996.6
2017-10-29T02:26:02.950Z,996.54
2017-10-29T02:27:11.585Z,996.54
2017-10-29T02:28:20.205Z,996.65
2017-10-29T02:29:28.834Z,996.63
2017-10-29T02:30:37.465Z,996.57
2017-10-29T02:31:46.419Z,996.52
2017-10-29T02:32:55.050Z,996.71
2017-10-29T02:34:03.684Z,996.73
2017-10-29T02:35:12.304Z,996.76
2017-10-29T02:36:20.934Z,996.83
2017-10-29T02:37:29.560Z,996.79
2017-10-29T02:38:38.184Z,996.78
2017-10-29T02:39:46.810Z,996.96
2017-10-29T02:40:55.441Z,997
2017-10-29T02:42:04.391Z,997.05
2017-10-29T02:43:13.352Z,996.74
2017-10-29T02:44:21.977Z,996.76
2017-10-29T02:45:30.612Z,996.78
2017-10-29T02:46:39.235Z,996.93
2017-10-29T02:47:47.858Z,996.82
2017-10-29T02:48:56.482Z,996.61
2017-10-29T02:50:05.101Z,996.71
2017-10-29T02:51:13.738Z,996.59
2017-10-29T02:52:22.359Z,996.64
2017-10-29T02:53:30.984Z,996.72
2017-10-29T02:54:39.613Z,996.83
2017-10-29T02:55:48.239Z,996.77
2017-10-29T02:56:56.864Z,996.75
2017-10-29T02:58:05.489Z,996.81
2017-10-29T02:59:14.786Z,996.78
2017-10-29T03:00:23.415Z,996.85
2017-10-29T03:01:32.035Z,996.92
2017-10-29T03:02:40.657Z,997.01
2017-10-29T03:03:49.622Z,997.1
2017-10-29T03:04:58.243Z,997.02
2017-10-29T03:06:06.866Z,997.18
2017-10-29T03:07:15.496Z,997.05
2017-10-29T03:08:24.122Z,997.36
2017-10-29T03:09:32.742Z,997.37
2017-10-29T03:10:41.368Z,997.61
2017-10-29T03:11:49.992Z,997.43
2017-10-29T03:12:58.627Z,998.23
2017-10-29T03:14:07.582Z,997.74
2017-10-29T03:15:16.206Z,997.97
2017-10-29T03:16:24.833Z,997.9
2017-10-29T03:17:33.461Z,998.01
2017-10-29T03:18:42.078Z,997.9
2017-10-29T03:19:50.707Z,997.96
2017-10-29T03:20:59.327Z,998.04
2017-10-29T03:22:07.959Z,997.88
2017-10-29T03:23:16.582Z,997.97
2017-10-29T03:24:25.209Z,998.11
2017-10-29T03:25:33.838Z,998.13
2017-10-29T03:26:42.456Z,997.99
2017-10-29T03:27:51.086Z,997.98
2017-10-29T03:28:59.709Z,997.69
2017-10-29T03:30:08.331Z,997.82
2017-10-29T03:31:16.958Z,997.71
2017-10-29T03:32:25.581Z,997.66
2017-10-29T03:33:34.201Z,997.57
2017-10-29T03:34:42.825Z,997.83
2017-10-29T03:35:51.455Z,997.69
2017-10-29T03:37:00.070Z,997.89
2017-10-29T03:38:08.698Z,997.9
2017-10-29T03:39:17.322Z,997.83
2017-10-29T03:40:25.941Z,997.83
2017-10-29T03:41:34.572Z,997.78
2017-10-29T03:42:43.196Z,997.99
2017-10-29T03:43:51.823Z,997.96
2017-10-29T03:45:00.452Z,998.02
2017-10-29T03:46:09.072Z,998.02
2017-10-29T03:47:17.696Z,997.86
2017-10-29T03:48:26.324Z,997.96
2017-10-29T03:49:34.937Z,997.87
2017-10-29T03:50:43.566Z,997.97
2017-10-29T03:51:52.193Z,997.92
2017-10-29T03:53:00.817Z,997.93
2017-10-29T03:54:09.438Z,997.95
2017-10-29T03:55:18.071Z,998.14
2017-10-29T03:56:26.687Z,997.99
2017-10-29T03:57:35.649Z,998.03
2017-10-29T03:58:44.267Z,998
2017-10-29T03:59:52.893Z,998.06
2017-10-29T04:01:01.518Z,997.92
2017-10-29T04:02:10.139Z,997.92
2017-10-29T04:03:19.095Z,998.04
2017-10-29T04:04:27.727Z,998.06
2017-10-29T04:05:36.349Z,997.95
2017-10-29T04:06:44.974Z,998.13
2017-10-29T04:07:53.606Z,998.17
2017-10-29T04:09:02.225Z,997.99
2017-10-29T04:10:10.849Z,998.03
2017-10-29T04:11:19.472Z,998
2017-10-29T04:12:28.423Z,998.07
2017-10-29T04:13:37.388Z,998.05
2017-10-29T04:14:46.011Z,997.95
2017-10-29T04:15:54.641Z,997.96
2017-10-29T04:17:03.265Z,997.97
2017-10-29T04:18:11.884Z,998.12
2017-10-29T04:19:20.510Z,998.22
2017-10-29T04:20:29.134Z,998.35
2017-10-29T04:21:37.757Z,998.33
2017-10-29T04:22:46.387Z,998.34
2017-10-29T04:23:55.007Z,998.17
2017-10-29T04:25:03.637Z,998.1
2017-10-29T04:26:12.259Z,998.36
2017-10-29T04:27:20.886Z,998.3
2017-10-29T04:28:29.511Z,998.32
2017-10-29T04:29:38.132Z,998.36
2017-10-29T04:30:46.755Z,998.55
2017-10-29T04:31:55.388Z,998.51
2017-10-29T04:33:04.014Z,998.43
2017-10-29T04:34:12.632Z,998.53
2017-10-29T04:35:21.265Z,998.65
2017-10-29T04:36:29.886Z,998.76
2017-10-29T04:37:38.512Z,998.21
2017-10-29T04:38:47.143Z,998.67
2017-10-29T04:39:55.759Z,998.69
2017-10-29T04:41:04.389Z,998.65
2017-10-29T04:42:13.017Z,998.64
2017-10-29T04:43:21.971Z,998.67
2017-10-29T04:44:30.601Z,998.85
2017-10-29T04:45:39.226Z,998.66
2017-10-29T04:46:48.182Z,998.83
2017-10-29T04:47:56.808Z,998.86
2017-10-29T04:49:05.436Z,998.78
2017-10-29T04:50:14.055Z,998.84
2017-10-29T04:51:22.680Z,998.96
2017-10-29T04:52:31.638Z,999.01
2017-10-29T04:53:40.256Z,998.95
2017-10-29T04:54:48.888Z,998.96
2017-10-29T04:55:57.512Z,998.95
2017-10-29T04:57:06.136Z,999.05
2017-10-29T04:58:14.765Z,999.16
2017-10-29T04:59:23.382Z,999.26
2017-10-29T05:00:32.012Z,999.25
2017-10-29T05:01:40.635Z,999.32
2017-10-29T05:02:49.252Z,999.23
2017-10-29T05:03:57.880Z,999.08
2017-10-29T05:05:06.506Z,999.38
2017-10-29T05:06:15.127Z,999.32
2017-10-29T05:07:23.750Z,999.23
2017-10-29T05:08:32.382Z,999.22
2017-10-29T05:09:41.009Z,999.26
2017-10-29T05:10:49.633Z,999.27
2017-10-29T05:11:58.595Z,999.21
2017-10-29T05:13:07.224Z,999.39
2017-10-29T05:14:15.856Z,999.55
2017-10-29T05:15:24.807Z,999.38
2017-10-29T05:16:33.442Z,999.45
2017-10-29T05:17:42.060Z,999.48
2017-10-29T05:18:50.687Z,999.55
2017-10-29T05:19:59.314Z,999.66
2017-10-29T05:21:07.933Z,999.56
2017-10-29T05:22:16.561Z,999.72
2017-10-29T05:23:25.188Z,999.71
2017-10-29T05:24:33.828Z,999.75
2017-10-29T05:25:42.440Z,999.81
2017-10-29T05:26:51.060Z,999.68
2017-10-29T05:27:59.687Z,999.75
2017-10-29T05:29:08.645Z,999.79
2017-10-29T05:30:17.262Z,999.93
2017-10-29T05:31:25.889Z,999.84
2017-10-29T05:32:34.518Z,999.96
2017-10-29T05:33:43.141Z,999.95
2017-10-29T05:34:51.765Z,999.94
2017-10-29T05:36:00.393Z,999.94
2017-10-29T05:37:09.017Z,999.87
2017-10-29T05:38:17.646Z,1000.03
2017-10-29T05:39:26.265Z,1000.1
2017-10-29T05:40:34.894Z,1000.07
2017-10-29T05:41:43.518Z,1000.14
2017-10-29T05:42:52.142Z,1000.06
2017-10-29T05:44:00.762Z,1000.14
2017-10-29T05:45:09.394Z,1000.07
2017-10-29T05:46:18.016Z,1000.06
2017-10-29T05:47:26.639Z,1000.14
2017-10-29T05:48:35.273Z,1000.16
2017-10-29T05:49:43.895Z,1000.17
2017-10-29T05:50:52.518Z,1000.1
2017-10-29T05:52:01.147Z,1000.23
2017-10-29T05:53:09.765Z,1000.22
2017-10-29T05:54:18.397Z,1000.07
2017-10-29T05:55:27.022Z,1000.37
2017-10-29T05:56:35.640Z,1000.43
2017-10-29T05:57:44.273Z,1000.52
2017-10-29T05:58:52.891Z,1000.52
2017-10-29T06:00:01.515Z,1000.66
2017-10-29T06:01:10.144Z,1000.73
2017-10-29T06:02:18.769Z,1000.55
2017-10-29T06:03:27.383Z,1000.75
2017-10-29T06:04:36.009Z,1000.87
2017-10-29T06:05:44.640Z,1001
2017-10-29T06:06:53.251Z,1000.85
2017-10-29T06:08:01.884Z,1000.82
2017-10-29T06:09:10.502Z,1000.82
2017-10-29T06:10:19.126Z,1000.93
2017-10-29T06:11:27.754Z,1000.95
2017-10-29T06:12:36.371Z,1001.15
2017-10-29T06:13:44.999Z,1000.97
2017-10-29T06:14:53.619Z,1001.07
2017-10-29T06:16:02.251Z,1001.06
2017-10-29T06:17:11.207Z,1001.07
2017-10-29T06:18:19.828Z,1001.03
2017-10-29T06:19:28.456Z,1001.06
2017-10-29T06:20:37.083Z,1001.07
2017-10-29T06:21:45.700Z,1001.31
2017-10-29T06:22:54.324Z,1001.19
2017-10-29T06:24:02.945Z,1001.28
2017-10-29T06:25:11.576Z,1001.29
2017-10-29T06:26:20.196Z,1001.34
2017-10-29T06:27:28.818Z,1001.25
2017-10-29T06:28:37.443Z,1001.04
2017-10-29T06:29:46.071Z,1001.5
2017-10-29T06:30:54.691Z,1001.35
2017-10-29T06:32:03.315Z,1001.37
2017-10-29T06:33:11.937Z,1001.45
2017-10-29T06:34:20.554Z,1001.44
2017-10-29T06:35:29.181Z,1001.49
2017-10-29T06:36:37.806Z,1001.54
2017-10-29T06:37:46.436Z,1001.55
2017-10-29T06:38:55.061Z,1001.62
2017-10-29T06:40:03.681Z,1001.58
2017-10-29T06:41:12.303Z,1001.56
2017-10-29T06:42:20.931Z,1001.65
2017-10-29T06:43:29.546Z,1001.5
2017-10-29T06:44:38.171Z,1001.61
2017-10-29T06:45:46.794Z,1001.63
2017-10-29T06:46:55.419Z,1001.73
2017-10-29T06:48:04.046Z,1001.75
2017-10-29T06:49:12.665Z,1001.77
2017-10-29T06:50:21.286Z,1001.81
2017-10-29T06:51:29.907Z,1001.81
2017-10-29T06:52:38.542Z,1001.89
2017-10-29T06:53:47.163Z,1001.92
2017-10-29T06:54:55.786Z,1001.87
2017-10-29T06:56:04.412Z,1001.96
2017-10-29T06:57:13.045Z,1002.01
2017-10-29T06:58:21.657Z,1001.98
2017-10-29T06:59:30.282Z,1002.12
2017-10-29T07:00:38.904Z,1002.02
2017-10-29T07:01:47.518Z,1002.14
2017-10-29T07:02:56.145Z,1002.09
2017-10-29T07:04:04.771Z,1002.11
2017-10-29T07:05:13.402Z,1002.09
2017-10-29T07:06:22.357Z,1002.14
2017-10-29T07:07:30.977Z,1002.09
2017-10-29T07:08:39.606Z,1002.27
2017-10-29T07:09:48.231Z,1002.26
2017-10-29T07:10:56.846Z,1002.39
2017-10-29T07:12:05.478Z,1002.47
2017-10-29T07:13:14.099Z,1002.42
2017-10-29T07:14:22.724Z,1002.4
2017-10-29T07:15:31.356Z,1002.43
2017-10-29T07:16:39.969Z,1002.42
2017-10-29T07:17:48.602Z,1002.52
2017-10-29T07:18:57.221Z,1002.54
2017-10-29T07:20:05.839Z,1002.66
2017-10-29T07:21:14.801Z,1002.61
2017-10-29T07:22:23.426Z,1002.78
2017-10-29T07:23:32.055Z,1002.67
2017-10-29T07:24:40.679Z,1002.7
2017-10-29T07:25:49.303Z,1002.73
2017-10-29T07:26:57.923Z,1002.78
2017-10-29T07:28:06.551Z,1002.81
2017-10-29T07:29:15.170Z,1002.82
2017-10-29T07:30:23.795Z,1002.88
2017-10-29T07:31:32.423Z,1002.85
2017-10-29T07:32:41.373Z,1002.9
2017-10-29T07:33:50.000Z,1002.99
2017-10-29T07:34:58.637Z,1003.01
2017-10-29T07:36:07.253Z,1003.03
2017-10-29T07:37:15.878Z,1003.06
2017-10-29T07:38:24.496Z,1003.06
2017-10-29T07:39:33.125Z,1003.12
2017-10-29T07:40:41.748Z,1003.19
2017-10-29T07:41:50.371Z,1003.06
2017-10-29T07:42:58.995Z,1003.13
2017-10-29T07:44:07.626Z,1003.12
2017-10-29T07:45:16.243Z,1003.28
2017-10-29T07:46:24.867Z,1003.24
2017-10-29T07:47:33.496Z,1003.31
2017-10-29T07:48:42.120Z,1003.29
2017-10-29T07:49:50.749Z,1003.37
2017-10-29T07:50:59.362Z,1003.46
2017-10-29T07:52:07.992Z,1003.38
2017-10-29T07:53:16.621Z,1003.43
2017-10-29T07:54:25.241Z,1003.5
2017-10-29T07:55:33.865Z,1003.53
2017-10-29T07:56:42.498Z,1003.48
2017-10-29T07:57:51.115Z,1003.56
2017-10-29T07:58:59.737Z,1003.57
2017-10-29T08:00:08.369Z,1003.7
2017-10-29T08:01:17.326Z,1003.69
2017-10-29T08:02:25.944Z,1003.58
2017-10-29T08:03:34.568Z,1003.67
2017-10-29T08:04:43.191Z,1003.7
2017-10-29T08:05:51.825Z,1003.68
2017-10-29T08:07:00.449Z,1003.73
2017-10-29T08:08:09.069Z,1003.74
2017-10-29T08:09:17.698Z,1003.82
2017-10-29T08:10:26.327Z,1003.83
2017-10-29T08:11:34.951Z,1003.92
2017-10-29T08:12:43.575Z,1003.94
2017-10-29T08:13:52.200Z,1004.04
2017-10-29T08:15:00.835Z,1004.06
2017-10-29T08:16:09.459Z,1004.06
2017-10-29T08:17:18.084Z,1004.09
2017-10-29T08:18:26.711Z,1004.11
2017-10-29T08:19:35.329Z,1004.08
2017-10-29T08:20:43.964Z,1004.13
2017-10-29T08:21:52.585Z,1004.11
2017-10-29T08:23:01.207Z,1004.09
2017-10-29T08:24:09.842Z,1004.13
2017-10-29T08:25:18.463Z,1004.3
2017-10-29T08:26:27.089Z,1004.23
2017-10-29T08:27:35.710Z,1004.17
2017-10-29T08:28:44.346Z,1004.25
2017-10-29T08:29:52.958Z,1004.3
2017-10-29T08:31:01.584Z,1004.25
2017-10-29T08:32:10.210Z,1004.5
2017-10-29T08:33:18.828Z,1004.39
2017-10-29T08:34:27.806Z,1004.42
2017-10-29T08:35:36.425Z,1004.31
2017-10-29T08:36:45.056Z,1004.42
2017-10-29T08:37:53.684Z,1004.43
2017-10-29T08:39:02.632Z,1004.42
2017-10-29T08:40:11.258Z,1004.45
2017-10-29T08:41:19.887Z,1004.32
2017-10-29T08:42:28.507Z,1004.4
2017-10-29T08:43:37.142Z,1004.44
2017-10-29T08:44:45.763Z,1004.41
2017-10-29T08:45:54.383Z,1004.5
2017-10-29T08:47:03.007Z,1004.54
2017-10-29T08:48:11.640Z,1004.67
2017-10-29T08:49:20.261Z,1004.63
2017-10-29T08:50:28.890Z,1004.73
2017-10-29T08:51:37.505Z,1004.88
2017-10-29T08:52:46.131Z,1004.8
2017-10-29T08:53:54.759Z,1004.74
2017-10-29T08:55:03.381Z,1004.77
2017-10-29T08:56:12.013Z,1004.7
2017-10-29T08:57:20.648Z,1004.78
2017-10-29T08:58:29.268Z,1004.84
2017-10-29T08:59:37.893Z,1004.77
2017-10-29T09:00:46.526Z,1004.87
2017-10-29T09:01:55.152Z,1004.78
2017-10-29T09:03:03.780Z,1004.96
2017-10-29T09:04:12.402Z,1004.89
2017-10-29T09:05:21.021Z,1004.93
2017-10-29T09:06:29.654Z,1005.01
2017-10-29T09:07:38.277Z,1004.99
2017-10-29T09:08:47.237Z,1005.19
2017-10-29T09:09:55.872Z,1005.03
2017-10-29T09:11:04.490Z,1005.02
2017-10-29T09:12:13.121Z,1005.08
2017-10-29T09:13:21.744Z,1004.82
2017-10-29T09:14:30.370Z,1005.04
2017-10-29T09:15:39.002Z,1005.09
2017-10-29T09:16:47.624Z,1005.15
2017-10-29T09:17:56.253Z,1005.22
2017-10-29T09:19:04.871Z,1005.24
2017-10-29T09:20:13.500Z,1005.19
2017-10-29T09:21:22.123Z,1005.23
2017-10-29T09:22:30.750Z,1005.3
2017-10-29T09:23:39.701Z,1005.34
2017-10-29T09:24:48.333Z,1005.36
2017-10-29T09:25:56.960Z,1005.37
2017-10-29T09:27:05.579Z,1005.49
2017-10-29T09:28:14.212Z,1005.35
2017-10-29T09:29:22.837Z,1005.46
2017-10-29T09:30:31.462Z,1005.43
2017-10-29T09:31:40.426Z,1005.4
2017-10-29T09:32:49.048Z,1005.39
2017-10-29T09:33:57.676Z,1005.46
2017-10-29T09:35:06.298Z,1005.71
2017-10-29T09:36:14.923Z,1005.48
2017-10-29T09:37:23.559Z,1005.53
2017-10-29T09:38:32.179Z,1005.5
2017-10-29T09:39:40.801Z,1005.63
2017-10-29T09:40:49.434Z,1005.57
2017-10-29T09:41:58.062Z,1005.77
2017-10-29T09:43:06.682Z,1005.7
2017-10-29T09:44:15.309Z,1005.63
2017-10-29T09:45:23.938Z,1005.66
2017-10-29T09:46:32.556Z,1005.57
2017-10-29T09:47:41.183Z,1005.84
2017-10-29T09:48:49.806Z,1005.84
2017-10-29T09:49:58.432Z,1005.74
2017-10-29T09:51:07.065Z,1005.69
2017-10-29T09:52:15.677Z,1005.66
2017-10-29T09:53:24.307Z,1005.69
2017-10-29T09:54:32.932Z,1005.76
2017-10-29T09:55:41.550Z,1005.77
2017-10-29T09:56:50.182Z,1005.78
2017-10-29T09:57:58.809Z,1005.78
2017-10-29T09:59:07.436Z,1005.7
2017-10-29T10:00:16.059Z,1005.9
2017-10-29T10:01:24.690Z,1005.9
2017-10-29T10:02:33.316Z,1005.89
2017-10-29T10:03:42.279Z,1005.94
2017-10-29T10:04:50.901Z,1005.99
2017-10-29T10:06:00.184Z,1006.06
2017-10-29T10:07:08.837Z,1005.99
2017-10-29T10:08:17.435Z,1005.79
2017-10-29T10:09:26.075Z,1005.95
2017-10-29T10:10:34.688Z,1006.04
2017-10-29T10:11:43.319Z,1006.12
2017-10-29T10:12:51.973Z,1006.04
2017-10-29T10:14:00.572Z,1006.23
2017-10-29T10:15:09.204Z,1006.28
2017-10-29T10:16:17.830Z,1006.25
2017-10-29T10:17:26.459Z,1006.27
2017-10-29T10:18:35.088Z,1006.41
2017-10-29T10:19:43.708Z,1006.42
2017-10-29T10:20:52.667Z,1006.58
2017-10-29T10:22:01.298Z,1006.41
2017-10-29T10:23:09.918Z,1006.48
2017-10-29T10:24:18.545Z,1006.61
2017-10-29T10:25:27.175Z,1006.63
2017-10-29T10:26:35.794Z,1006.57
2017-10-29T10:27:44.419Z,1006.86
2017-10-29T10:28:53.051Z,1006.64
2017-10-29T10:30:01.673Z,1006.73
2017-10-29T10:31:10.302Z,1006.73
2017-10-29T10:32:18.920Z,1006.84
2017-10-29T10:33:27.552Z,1006.85
2017-10-29T10:34:36.181Z,1006.69
2017-10-29T10:35:44.807Z,1006.83
2017-10-29T10:36:53.432Z,1006.88
2017-10-29T10:38:02.067Z,1006.87
2017-10-29T10:39:10.691Z,1006.95
2017-10-29T10:40:19.320Z,1006.96
2017-10-29T10:41:27.939Z,1006.97
2017-10-29T10:42:36.568Z,1007.08
2017-10-29T10:43:45.196Z,1007.02
2017-10-29T10:44:53.821Z,1006.91
2017-10-29T10:46:02.453Z,1006.9
2017-10-29T10:47:11.076Z,1006.89
2017-10-29T10:48:19.708Z,1006.86
2017-10-29T10:49:28.336Z,1006.9
2017-10-29T10:50:36.955Z,1006.85
2017-10-29T10:51:45.582Z,1006.79
2017-10-29T10:52:54.212Z,1006.69
2017-10-29T10:54:02.836Z,1006.81
2017-10-29T10:55:11.462Z,1006.88
2017-10-29T10:56:20.094Z,1006.87
2017-10-29T10:57:28.718Z,1006.76
2017-10-29T10:58:37.343Z,1006.84
2017-10-29T10:59:45.975Z,1006.78
2017-10-29T11:00:54.595Z,1006.81
2017-10-29T11:02:03.221Z,1006.91
2017-10-29T11:03:11.844Z,1006.99
2017-10-29T11:04:20.467Z,1006.9
2017-10-29T11:05:29.101Z,1006.84
2017-10-29T11:06:37.727Z,1006.89
2017-10-29T11:07:46.354Z,1006.95
2017-10-29T11:08:54.972Z,1007
2017-10-29T11:10:03.603Z,1006.98
2017-10-29T11:11:12.235Z,1007.07
2017-10-29T11:12:20.861Z,1007.05
2017-10-29T11:13:29.485Z,1007
2017-10-29T11:14:38.116Z,1007.04
2017-10-29T11:15:46.740Z,1007.13
2017-10-29T11:16:55.370Z,1007.12
2017-10-29T11:18:03.994Z,1007.06
2017-10-29T11:19:12.624Z,1007
2017-10-29T11:20:21.254Z,1006.96
2017-10-29T11:21:29.876Z,1007.04
2017-10-29T11:22:38.506Z,1007.09
2017-10-29T11:23:47.141Z,1007.03
2017-10-29T11:24:55.764Z,1007.01
2017-10-29T11:26:04.393Z,1007.05
2017-10-29T11:27:13.025Z,1007.1
2017-10-29T11:28:21.650Z,1007.06
2017-10-29T11:29:30.276Z,1007.04
2017-10-29T11:30:38.899Z,1007.08
2017-10-29T11:31:47.521Z,1007.06
2017-10-29T11:32:56.157Z,1007.16
2017-10-29T11:34:04.781Z,1007.27
2017-10-29T11:35:13.412Z,1007.51
2017-10-29T11:36:22.042Z,1007.74
2017-10-29T11:37:30.666Z,1007.88
2017-10-29T11:38:39.291Z,1007.73
2017-10-29T11:39:48.251Z,1007.57
2017-10-29T11:40:56.877Z,1007.69
2017-10-29T11:42:05.499Z,1007.33
2017-10-29T11:43:14.129Z,1007.39
2017-10-29T11:44:22.751Z,1007.48
2017-10-29T11:45:31.385Z,1007.47
2017-10-29T11:46:40.009Z,1007.44
2017-10-29T11:47:48.634Z,1007.45
2017-10-29T11:48:57.260Z,1007.5
2017-10-29T11:50:05.889Z,1007.45
2017-10-29T11:51:14.509Z,1007.45
2017-10-29T11:52:23.137Z,1007.48
2017-10-29T11:53:31.773Z,1007.54
2017-10-29T11:54:40.388Z,1007.55
2017-10-29T11:55:49.018Z,1007.51
2017-10-29T11:56:57.648Z,1007.51
2017-10-29T11:58:06.272Z,1007.56
2017-10-29T11:59:14.902Z,1007.5
2017-10-29T12:00:23.520Z,1007.54
2017-10-29T12:01:32.151Z,1007.42
2017-10-29T12:02:40.776Z,1007.44
2017-10-29T12:03:49.393Z,1007.51
2017-10-29T12:04:58.019Z,1007.52
2017-10-29T12:06:06.647Z,1007.51
2017-10-29T12:07:15.272Z,1007.45
2017-10-29T12:08:23.900Z,1007.54
2017-10-29T12:09:32.519Z,1007.54
2017-10-29T12:10:41.145Z,1007.59
2017-10-29T12:11:49.775Z,1007.64
2017-10-29T12:12:58.395Z,1007.53
2017-10-29T12:14:07.025Z,1007.6
2017-10-29T12:15:15.647Z,1007.54
2017-10-29T12:16:24.275Z,1007.53
2017-10-29T12:17:32.906Z,1007.74
2017-10-29T12:18:41.522Z,1007.62
2017-10-29T12:19:50.151Z,1007.68
2017-10-29T12:20:58.775Z,1007.71
2017-10-29T12:22:07.396Z,1007.57
2017-10-29T12:23:16.026Z,1007.76
2017-10-29T12:24:24.654Z,1007.72
2017-10-29T12:25:33.277Z,1007.81
2017-10-29T12:26:41.899Z,1007.84
2017-10-29T12:27:50.531Z,1007.97
2017-10-29T12:28:59.155Z,1007.68
2017-10-29T12:30:07.784Z,1007.77
2017-10-29T12:31:16.402Z,1007.79
2017-10-29T12:32:25.028Z,1007.94
2017-10-29T12:33:33.656Z,1007.95
2017-10-29T12:34:42.283Z,1007.99
2017-10-29T12:35:50.900Z,1008.06
2017-10-29T12:36:59.534Z,1007.96
2017-10-29T12:38:08.157Z,1008.03
2017-10-29T12:39:16.779Z,1007.98
2017-10-29T12:40:25.411Z,1008.03
2017-10-29T12:41:34.034Z,1008.04
2017-10-29T12:42:42.657Z,1007.99
2017-10-29T12:43:51.279Z,1008.04
2017-10-29T12:44:59.911Z,1008.09
2017-10-29T12:46:08.537Z,1008.11
2017-10-29T12:47:17.160Z,1008.08
2017-10-29T12:48:25.785Z,1008.1
2017-10-29T12:49:34.421Z,1008.13
2017-10-29T12:50:43.045Z,1008.2
2017-10-29T12:51:51.668Z,1008.12
2017-10-29T12:53:00.297Z,1008.09
2017-10-29T12:54:08.928Z,1008.17
2017-10-29T12:55:17.553Z,1008.2
2017-10-29T12:56:26.179Z,1008.18
2017-10-29T12:57:34.803Z,1008.22
2017-10-29T12:58:43.436Z,1008.23
2017-10-29T12:59:52.059Z,1008.25
2017-10-29T13:01:00.685Z,1008.18
2017-10-29T13:02:09.316Z,1008.31
2017-10-29T13:03:17.942Z,1008.23
2017-10-29T13:04:26.562Z,1008.35
2017-10-29T13:05:35.187Z,1008.31
2017-10-29T13:06:43.813Z,1008.4
2017-10-29T13:07:52.449Z,1008.31
2017-10-29T13:09:01.077Z,1008.36
2017-10-29T13:10:09.709Z,1008.34
2017-10-29T13:11:18.325Z,1008.37
2017-10-29T13:12:26.948Z,1008.35
2017-10-29T13:13:35.580Z,1008.32
2017-10-29T13:14:44.213Z,1008.3
2017-10-29T13:15:53.161Z,1008.35
2017-10-29T13:17:01.797Z,1008.37
2017-10-29T13:18:10.421Z,1008.51
2017-10-29T13:19:19.044Z,1008.56
2017-10-29T13:20:27.677Z,1008.54
2017-10-29T13:21:36.304Z,1008.59
2017-10-29T13:22:44.922Z,1008.62
2017-10-29T13:23:53.551Z,1008.63
2017-10-29T13:25:02.185Z,1008.65
2017-10-29T13:26:10.807Z,1008.68
2017-10-29T13:27:19.439Z,1008.7
2017-10-29T13:28:28.392Z,1008.69
2017-10-29T13:29:37.021Z,1008.76
2017-10-29T13:30:45.654Z,1008.85
2017-10-29T13:31:54.278Z,1008.79
2017-10-29T13:33:02.907Z,1008.86
2017-10-29T13:34:11.538Z,1008.83
2017-10-29T13:35:20.155Z,1008.97
2017-10-29T13:36:28.782Z,1008.94
2017-10-29T13:37:37.411Z,1008.82
2017-10-29T13:38:46.037Z,1008.93
2017-10-29T13:39:54.664Z,1008.92
2017-10-29T13:41:03.296Z,1008.81
2017-10-29T13:42:11.919Z,1008.91
2017-10-29T13:43:20.549Z,1008.87
2017-10-29T13:44:29.169Z,1008.84
2017-10-29T13:45:37.798Z,1008.93
2017-10-29T13:46:46.434Z,1008.93
2017-10-29T13:47:55.060Z,1008.95
2017-10-29T13:49:03.684Z,1008.94
2017-10-29T13:50:12.646Z,1009.04
2017-10-29T13:51:21.639Z,1008.96
2017-10-29T13:52:30.261Z,1008.98
2017-10-29T13:53:38.895Z,1009.07
2017-10-29T13:54:47.517Z,1009.1
2017-10-29T13:55:56.147Z,1009.03
2017-10-29T13:57:04.779Z,1009.12
2017-10-29T13:58:13.403Z,1008.99
2017-10-29T13:59:22.038Z,1009.17
2017-10-29T14:00:30.667Z,1009.07
2017-10-29T14:01:39.290Z,1009.15
2017-10-29T14:02:47.922Z,1009.13
2017-10-29T14:03:56.542Z,1009.21